sensor_id;sensor_type;location;lat;lon;timestamp;P1;durP1;ratioP1;P2;durP2;ratioP2
20181;SDS011;10250;50.756;6.172;2023-07-20T00:01:44;12.50;;;3.40;;
20181;SDS011;10250;50.756;6.172;2023-07-20T00:03:45;12.87;;;3.60;;
20181;SDS011;10250;50.756;6.172;2023-07-20T00:05:54;13.00;;;3.87;;
20181;SDS011;10250;50.756;6.172;2023-07-20T00:07:55;13.67;;;3.50;;
20181;SDS011;10250;50.756;6.172;2023-07-20T00:09:56;13.33;;;3.97;;
20181;SDS011;10250;50.756;6.172;2023-07-20T00:11:57;12.53;;;3.77;;
20181;SDS011;10250;50.756;6.172;2023-07-20T00:14:00;12.00;;;3.77;;
20181;SDS011;10250;50.756;6.172;2023-07-20T00:16:00;12.90;;;3.80;;
20181;SDS011;10250;50.756;6.172;2023-07-20T00:18:01;12.17;;;3.80;;
20181;SDS011;10250;50.756;6.172;2023-07-20T00:20:01;16.50;;;4.00;;
20181;SDS011;10250;50.756;6.172;2023-07-20T00:22:05;13.63;;;4.07;;
20181;SDS011;10250;50.756;6.172;2023-07-20T00:24:05;14.23;;;4.27;;
20181;SDS011;10250;50.756;6.172;2023-07-20T00:26:06;14.40;;;3.87;;
20181;SDS011;10250;50.756;6.172;2023-07-20T00:28:06;17.67;;;3.70;;
20181;SDS011;10250;50.756;6.172;2023-07-20T00:30:07;12.40;;;3.70;;
20181;SDS011;10250;50.756;6.172;2023-07-20T00:32:08;11.57;;;3.63;;
20181;SDS011;10250;50.756;6.172;2023-07-20T00:34:09;12.77;;;3.57;;
20181;SDS011;10250;50.756;6.172;2023-07-20T00:36:09;12.87;;;3.30;;
20181;SDS011;10250;50.756;6.172;2023-07-20T00:38:10;11.93;;;3.53;;
20181;SDS011;10250;50.756;6.172;2023-07-20T00:40:11;12.67;;;3.27;;
20181;SDS011;10250;50.756;6.172;2023-07-20T00:42:12;13.83;;;3.80;;
20181;SDS011;10250;50.756;6.172;2023-07-20T00:44:12;12.50;;;3.30;;
20181;SDS011;10250;50.756;6.172;2023-07-20T00:46:13;17.87;;;4.00;;
20181;SDS011;10250;50.756;6.172;2023-07-20T00:48:14;13.47;;;3.60;;
20181;SDS011;10250;50.756;6.172;2023-07-20T00:50:15;14.67;;;4.10;;
20181;SDS011;10250;50.756;6.172;2023-07-20T00:52:16;14.20;;;3.77;;
20181;SDS011;10250;50.756;6.172;2023-07-20T00:54:19;12.87;;;3.60;;
20181;SDS011;10250;50.756;6.172;2023-07-20T00:56:19;14.40;;;3.47;;
20181;SDS011;10250;50.756;6.172;2023-07-20T00:58:21;14.60;;;3.87;;
20181;SDS011;10250;50.756;6.172;2023-07-20T01:00:22;13.93;;;3.43;;
20181;SDS011;10250;50.756;6.172;2023-07-20T01:02:23;14.27;;;3.80;;
20181;SDS011;10250;50.756;6.172;2023-07-20T01:04:24;13.70;;;3.70;;
20181;SDS011;10250;50.756;6.172;2023-07-20T01:10:39;16.73;;;4.17;;
20181;SDS011;10250;50.756;6.172;2023-07-20T01:12:56;14.53;;;3.60;;
20181;SDS011;10250;50.756;6.172;2023-07-20T01:14:57;13.93;;;3.90;;
20181;SDS011;10250;50.756;6.172;2023-07-20T01:16:57;14.17;;;4.00;;
20181;SDS011;10250;50.756;6.172;2023-07-20T01:18:58;12.57;;;3.47;;
20181;SDS011;10250;50.756;6.172;2023-07-20T01:20:59;14.87;;;3.70;;
20181;SDS011;10250;50.756;6.172;2023-07-20T01:32:23;18.37;;;3.70;;
20181;SDS011;10250;50.756;6.172;2023-07-20T01:34:25;17.27;;;3.63;;
20181;SDS011;10250;50.756;6.172;2023-07-20T01:36:28;13.40;;;3.40;;
20181;SDS011;10250;50.756;6.172;2023-07-20T01:38:30;15.47;;;3.33;;
20181;SDS011;10250;50.756;6.172;2023-07-20T01:40:31;14.67;;;3.87;;
20181;SDS011;10250;50.756;6.172;2023-07-20T01:42:32;13.83;;;3.57;;
20181;SDS011;10250;50.756;6.172;2023-07-20T01:44:33;14.53;;;3.90;;
20181;SDS011;10250;50.756;6.172;2023-07-20T01:46:33;13.13;;;3.57;;
20181;SDS011;10250;50.756;6.172;2023-07-20T01:48:34;11.80;;;3.23;;
20181;SDS011;10250;50.756;6.172;2023-07-20T01:50:35;13.67;;;3.50;;
20181;SDS011;10250;50.756;6.172;2023-07-20T01:52:35;11.73;;;3.20;;
20181;SDS011;10250;50.756;6.172;2023-07-20T01:54:36;12.90;;;3.60;;
20181;SDS011;10250;50.756;6.172;2023-07-20T01:56:36;13.93;;;3.73;;
20181;SDS011;10250;50.756;6.172;2023-07-20T01:58:38;12.63;;;3.40;;
20181;SDS011;10250;50.756;6.172;2023-07-20T02:00:38;11.87;;;3.30;;
20181;SDS011;10250;50.756;6.172;2023-07-20T02:02:39;12.83;;;3.60;;
20181;SDS011;10250;50.756;6.172;2023-07-20T02:04:41;16.93;;;3.30;;
20181;SDS011;10250;50.756;6.172;2023-07-20T02:06:41;20.03;;;6.20;;
20181;SDS011;10250;50.756;6.172;2023-07-20T02:08:42;14.90;;;3.23;;
20181;SDS011;10250;50.756;6.172;2023-07-20T02:10:44;13.07;;;3.40;;
20181;SDS011;10250;50.756;6.172;2023-07-20T02:12:46;13.80;;;3.50;;
20181;SDS011;10250;50.756;6.172;2023-07-20T02:14:47;12.73;;;3.33;;
20181;SDS011;10250;50.756;6.172;2023-07-20T02:16:50;13.87;;;3.40;;
20181;SDS011;10250;50.756;6.172;2023-07-20T02:18:57;10.60;;;2.70;;
20181;SDS011;10250;50.756;6.172;2023-07-20T02:20:58;14.87;;;3.50;;
20181;SDS011;10250;50.756;6.172;2023-07-20T02:22:59;12.27;;;3.23;;
20181;SDS011;10250;50.756;6.172;2023-07-20T02:24:59;14.97;;;3.30;;
20181;SDS011;10250;50.756;6.172;2023-07-20T02:27:00;14.23;;;3.13;;
20181;SDS011;10250;50.756;6.172;2023-07-20T02:29:00;13.93;;;3.10;;
20181;SDS011;10250;50.756;6.172;2023-07-20T02:31:04;16.07;;;3.37;;
20181;SDS011;10250;50.756;6.172;2023-07-20T02:33:05;12.13;;;3.37;;
20181;SDS011;10250;50.756;6.172;2023-07-20T02:35:06;15.63;;;3.50;;
20181;SDS011;10250;50.756;6.172;2023-07-20T02:37:07;10.60;;;2.70;;
20181;SDS011;10250;50.756;6.172;2023-07-20T02:39:08;10.27;;;2.83;;
20181;SDS011;10250;50.756;6.172;2023-07-20T02:41:09;13.83;;;3.27;;
20181;SDS011;10250;50.756;6.172;2023-07-20T02:43:09;12.17;;;3.00;;
20181;SDS011;10250;50.756;6.172;2023-07-20T02:45:10;12.93;;;2.63;;
20181;SDS011;10250;50.756;6.172;2023-07-20T02:47:10;12.37;;;3.00;;
20181;SDS011;10250;50.756;6.172;2023-07-20T02:49:11;11.77;;;2.97;;
20181;SDS011;10250;50.756;6.172;2023-07-20T02:51:12;15.67;;;3.37;;
20181;SDS011;10250;50.756;6.172;2023-07-20T02:53:12;12.43;;;2.77;;
20181;SDS011;10250;50.756;6.172;2023-07-20T02:55:13;13.33;;;2.80;;
20181;SDS011;10250;50.756;6.172;2023-07-20T02:57:14;14.57;;;3.20;;
20181;SDS011;10250;50.756;6.172;2023-07-20T02:59:14;12.37;;;2.60;;
20181;SDS011;10250;50.756;6.172;2023-07-20T03:01:15;11.60;;;3.03;;
20181;SDS011;10250;50.756;6.172;2023-07-20T03:03:15;13.67;;;3.17;;
20181;SDS011;10250;50.756;6.172;2023-07-20T03:05:16;12.23;;;2.77;;
20181;SDS011;10250;50.756;6.172;2023-07-20T03:07:16;14.27;;;3.07;;
20181;SDS011;10250;50.756;6.172;2023-07-20T03:09:17;10.27;;;2.80;;
20181;SDS011;10250;50.756;6.172;2023-07-20T03:11:18;11.57;;;3.10;;
20181;SDS011;10250;50.756;6.172;2023-07-20T03:13:20;11.20;;;3.07;;
20181;SDS011;10250;50.756;6.172;2023-07-20T03:15:21;11.17;;;2.97;;
20181;SDS011;10250;50.756;6.172;2023-07-20T03:17:21;14.23;;;2.90;;
20181;SDS011;10250;50.756;6.172;2023-07-20T03:19:22;12.97;;;2.90;;
20181;SDS011;10250;50.756;6.172;2023-07-20T03:21:23;13.63;;;2.90;;
20181;SDS011;10250;50.756;6.172;2023-07-20T03:23:23;11.70;;;2.90;;
20181;SDS011;10250;50.756;6.172;2023-07-20T03:25:24;13.33;;;3.20;;
20181;SDS011;10250;50.756;6.172;2023-07-20T03:27:24;12.33;;;3.00;;
20181;SDS011;10250;50.756;6.172;2023-07-20T03:29:25;13.90;;;3.40;;
20181;SDS011;10250;50.756;6.172;2023-07-20T03:31:25;13.20;;;3.37;;
20181;SDS011;10250;50.756;6.172;2023-07-20T03:33:27;14.60;;;3.30;;
20181;SDS011;10250;50.756;6.172;2023-07-20T03:35:31;11.70;;;3.20;;
20181;SDS011;10250;50.756;6.172;2023-07-20T03:37:31;14.77;;;3.10;;
20181;SDS011;10250;50.756;6.172;2023-07-20T03:39:32;12.17;;;2.87;;
20181;SDS011;10250;50.756;6.172;2023-07-20T03:41:32;14.47;;;3.03;;
20181;SDS011;10250;50.756;6.172;2023-07-20T03:43:33;12.97;;;3.50;;
20181;SDS011;10250;50.756;6.172;2023-07-20T03:45:33;12.37;;;3.10;;
20181;SDS011;10250;50.756;6.172;2023-07-20T03:47:34;12.10;;;3.03;;
20181;SDS011;10250;50.756;6.172;2023-07-20T03:49:35;13.30;;;2.97;;
20181;SDS011;10250;50.756;6.172;2023-07-20T03:51:35;12.90;;;2.90;;
20181;SDS011;10250;50.756;6.172;2023-07-20T03:53:36;10.80;;;3.07;;
20181;SDS011;10250;50.756;6.172;2023-07-20T03:55:37;13.60;;;3.27;;
20181;SDS011;10250;50.756;6.172;2023-07-20T03:57:37;13.20;;;3.00;;
20181;SDS011;10250;50.756;6.172;2023-07-20T03:59:38;13.43;;;3.20;;
20181;SDS011;10250;50.756;6.172;2023-07-20T04:01:39;16.00;;;3.13;;
20181;SDS011;10250;50.756;6.172;2023-07-20T04:03:40;12.20;;;3.47;;
20181;SDS011;10250;50.756;6.172;2023-07-20T04:05:41;17.20;;;3.40;;
20181;SDS011;10250;50.756;6.172;2023-07-20T04:07:42;17.10;;;4.27;;
20181;SDS011;10250;50.756;6.172;2023-07-20T04:09:42;11.73;;;3.03;;
20181;SDS011;10250;50.756;6.172;2023-07-20T04:11:43;15.37;;;3.47;;
20181;SDS011;10250;50.756;6.172;2023-07-20T04:13:43;14.93;;;3.90;;
20181;SDS011;10250;50.756;6.172;2023-07-20T04:15:44;16.87;;;4.40;;
20181;SDS011;10250;50.756;6.172;2023-07-20T04:17:45;13.07;;;3.13;;
20181;SDS011;10250;50.756;6.172;2023-07-20T04:19:46;13.93;;;3.33;;
20181;SDS011;10250;50.756;6.172;2023-07-20T04:21:46;11.33;;;3.17;;
20181;SDS011;10250;50.756;6.172;2023-07-20T04:23:47;15.17;;;3.53;;
20181;SDS011;10250;50.756;6.172;2023-07-20T04:25:47;13.80;;;3.60;;
20181;SDS011;10250;50.756;6.172;2023-07-20T04:27:48;16.10;;;4.00;;
20181;SDS011;10250;50.756;6.172;2023-07-20T04:29:48;18.03;;;4.13;;
20181;SDS011;10250;50.756;6.172;2023-07-20T04:31:49;15.10;;;3.83;;
20181;SDS011;10250;50.756;6.172;2023-07-20T04:33:49;13.07;;;3.63;;
20181;SDS011;10250;50.756;6.172;2023-07-20T04:35:51;15.60;;;4.17;;
20181;SDS011;10250;50.756;6.172;2023-07-20T04:37:53;14.57;;;3.80;;
20181;SDS011;10250;50.756;6.172;2023-07-20T04:39:53;14.90;;;4.10;;
20181;SDS011;10250;50.756;6.172;2023-07-20T04:41:54;16.00;;;4.10;;
20181;SDS011;10250;50.756;6.172;2023-07-20T04:43:54;14.03;;;3.80;;
20181;SDS011;10250;50.756;6.172;2023-07-20T04:45:55;16.70;;;4.17;;
20181;SDS011;10250;50.756;6.172;2023-07-20T04:47:56;16.07;;;4.20;;
20181;SDS011;10250;50.756;6.172;2023-07-20T04:49:56;16.50;;;4.23;;
20181;SDS011;10250;50.756;6.172;2023-07-20T04:51:57;16.03;;;3.60;;
20181;SDS011;10250;50.756;6.172;2023-07-20T04:53:58;13.67;;;4.03;;
20181;SDS011;10250;50.756;6.172;2023-07-20T04:55:58;18.83;;;3.83;;
20181;SDS011;10250;50.756;6.172;2023-07-20T04:58:00;15.57;;;4.07;;
20181;SDS011;10250;50.756;6.172;2023-07-20T05:00:01;15.57;;;4.67;;
20181;SDS011;10250;50.756;6.172;2023-07-20T05:02:01;14.33;;;3.83;;
20181;SDS011;10250;50.756;6.172;2023-07-20T05:04:02;16.37;;;4.00;;
20181;SDS011;10250;50.756;6.172;2023-07-20T05:06:02;16.07;;;4.20;;
20181;SDS011;10250;50.756;6.172;2023-07-20T05:08:03;13.53;;;3.67;;
20181;SDS011;10250;50.756;6.172;2023-07-20T05:10:04;14.33;;;4.17;;
20181;SDS011;10250;50.756;6.172;2023-07-20T05:12:05;15.77;;;4.47;;
20181;SDS011;10250;50.756;6.172;2023-07-20T05:14:07;16.07;;;3.97;;
20181;SDS011;10250;50.756;6.172;2023-07-20T05:16:08;16.30;;;3.90;;
20181;SDS011;10250;50.756;6.172;2023-07-20T05:18:08;15.07;;;4.40;;
20181;SDS011;10250;50.756;6.172;2023-07-20T05:20:09;14.67;;;4.43;;
20181;SDS011;10250;50.756;6.172;2023-07-20T05:22:10;15.73;;;4.80;;
20181;SDS011;10250;50.756;6.172;2023-07-20T05:24:12;16.67;;;4.27;;
20181;SDS011;10250;50.756;6.172;2023-07-20T05:26:12;12.97;;;4.00;;
20181;SDS011;10250;50.756;6.172;2023-07-20T05:28:13;19.80;;;5.07;;
20181;SDS011;10250;50.756;6.172;2023-07-20T05:30:13;17.00;;;4.57;;
20181;SDS011;10250;50.756;6.172;2023-07-20T05:32:14;15.63;;;4.43;;
20181;SDS011;10250;50.756;6.172;2023-07-20T05:34:15;14.83;;;4.80;;
20181;SDS011;10250;50.756;6.172;2023-07-20T05:36:15;14.57;;;4.43;;
20181;SDS011;10250;50.756;6.172;2023-07-20T05:38:16;17.40;;;4.17;;
20181;SDS011;10250;50.756;6.172;2023-07-20T05:40:16;19.53;;;4.80;;
20181;SDS011;10250;50.756;6.172;2023-07-20T05:42:21;14.17;;;4.20;;
20181;SDS011;10250;50.756;6.172;2023-07-20T05:44:21;16.33;;;4.37;;
20181;SDS011;10250;50.756;6.172;2023-07-20T05:46:22;16.87;;;4.23;;
20181;SDS011;10250;50.756;6.172;2023-07-20T05:48:24;15.30;;;4.60;;
20181;SDS011;10250;50.756;6.172;2023-07-20T05:50:24;17.43;;;5.17;;
20181;SDS011;10250;50.756;6.172;2023-07-20T05:52:25;18.20;;;4.23;;
20181;SDS011;10250;50.756;6.172;2023-07-20T05:54:26;16.03;;;4.27;;
20181;SDS011;10250;50.756;6.172;2023-07-20T05:56:26;17.80;;;4.70;;
20181;SDS011;10250;50.756;6.172;2023-07-20T05:58:27;15.43;;;4.40;;
20181;SDS011;10250;50.756;6.172;2023-07-20T06:00:28;15.10;;;4.70;;
20181;SDS011;10250;50.756;6.172;2023-07-20T06:02:28;13.30;;;4.20;;
20181;SDS011;10250;50.756;6.172;2023-07-20T06:04:29;16.60;;;4.97;;
20181;SDS011;10250;50.756;6.172;2023-07-20T06:06:30;15.77;;;5.27;;
20181;SDS011;10250;50.756;6.172;2023-07-20T06:08:31;18.33;;;5.40;;
20181;SDS011;10250;50.756;6.172;2023-07-20T06:10:31;18.03;;;5.37;;
20181;SDS011;10250;50.756;6.172;2023-07-20T06:12:32;16.30;;;5.10;;
20181;SDS011;10250;50.756;6.172;2023-07-20T06:14:33;14.13;;;4.83;;
20181;SDS011;10250;50.756;6.172;2023-07-20T06:16:34;15.03;;;5.33;;
20181;SDS011;10250;50.756;6.172;2023-07-20T06:18:35;15.43;;;5.90;;
20181;SDS011;10250;50.756;6.172;2023-07-20T06:20:35;15.63;;;5.07;;
20181;SDS011;10250;50.756;6.172;2023-07-20T06:22:36;18.57;;;5.23;;
20181;SDS011;10250;50.756;6.172;2023-07-20T06:24:37;15.97;;;5.50;;
20181;SDS011;10250;50.756;6.172;2023-07-20T06:26:37;17.93;;;6.20;;
20181;SDS011;10250;50.756;6.172;2023-07-20T06:28:39;17.40;;;5.20;;
20181;SDS011;10250;50.756;6.172;2023-07-20T06:30:39;16.37;;;5.50;;
20181;SDS011;10250;50.756;6.172;2023-07-20T06:32:40;15.77;;;5.50;;
20181;SDS011;10250;50.756;6.172;2023-07-20T06:34:40;15.93;;;5.10;;
20181;SDS011;10250;50.756;6.172;2023-07-20T06:36:41;15.57;;;5.37;;
20181;SDS011;10250;50.756;6.172;2023-07-20T06:38:42;24.83;;;5.40;;
20181;SDS011;10250;50.756;6.172;2023-07-20T06:40:42;18.33;;;5.83;;
20181;SDS011;10250;50.756;6.172;2023-07-20T06:42:43;21.20;;;6.13;;
20181;SDS011;10250;50.756;6.172;2023-07-20T06:44:44;20.93;;;5.87;;
20181;SDS011;10250;50.756;6.172;2023-07-20T06:46:45;16.33;;;5.37;;
20181;SDS011;10250;50.756;6.172;2023-07-20T06:48:46;16.13;;;5.80;;
20181;SDS011;10250;50.756;6.172;2023-07-20T06:50:46;17.90;;;5.33;;
20181;SDS011;10250;50.756;6.172;2023-07-20T06:52:47;15.13;;;5.17;;
20181;SDS011;10250;50.756;6.172;2023-07-20T06:54:47;18.93;;;5.17;;
20181;SDS011;10250;50.756;6.172;2023-07-20T06:56:48;18.00;;;5.07;;
20181;SDS011;10250;50.756;6.172;2023-07-20T06:58:49;15.97;;;5.10;;
20181;SDS011;10250;50.756;6.172;2023-07-20T07:00:49;15.27;;;5.20;;
20181;SDS011;10250;50.756;6.172;2023-07-20T07:02:50;15.23;;;5.40;;
20181;SDS011;10250;50.756;6.172;2023-07-20T07:04:50;15.80;;;5.60;;
20181;SDS011;10250;50.756;6.172;2023-07-20T07:06:51;15.87;;;6.03;;
20181;SDS011;10250;50.756;6.172;2023-07-20T07:08:52;15.57;;;5.70;;
20181;SDS011;10250;50.756;6.172;2023-07-20T07:10:52;17.80;;;5.10;;
20181;SDS011;10250;50.756;6.172;2023-07-20T07:12:53;13.97;;;4.90;;
20181;SDS011;10250;50.756;6.172;2023-07-20T07:14:53;16.07;;;5.00;;
20181;SDS011;10250;50.756;6.172;2023-07-20T07:16:54;14.30;;;5.20;;
20181;SDS011;10250;50.756;6.172;2023-07-20T07:18:54;15.20;;;5.13;;
20181;SDS011;10250;50.756;6.172;2023-07-20T07:20:55;15.10;;;4.77;;
20181;SDS011;10250;50.756;6.172;2023-07-20T07:22:56;15.87;;;4.73;;
20181;SDS011;10250;50.756;6.172;2023-07-20T07:24:57;16.23;;;4.83;;
20181;SDS011;10250;50.756;6.172;2023-07-20T07:26:57;15.27;;;5.03;;
20181;SDS011;10250;50.756;6.172;2023-07-20T07:28:58;15.63;;;4.77;;
20181;SDS011;10250;50.756;6.172;2023-07-20T07:30:59;16.73;;;5.47;;
20181;SDS011;10250;50.756;6.172;2023-07-20T07:32:59;13.50;;;4.70;;
20181;SDS011;10250;50.756;6.172;2023-07-20T07:35:00;14.83;;;4.87;;
20181;SDS011;10250;50.756;6.172;2023-07-20T07:37:00;17.83;;;5.40;;
20181;SDS011;10250;50.756;6.172;2023-07-20T07:39:01;15.60;;;4.93;;
20181;SDS011;10250;50.756;6.172;2023-07-20T07:41:01;12.63;;;4.13;;
20181;SDS011;10250;50.756;6.172;2023-07-20T07:43:02;12.80;;;4.13;;
20181;SDS011;10250;50.756;6.172;2023-07-20T07:45:03;12.23;;;3.70;;
20181;SDS011;10250;50.756;6.172;2023-07-20T07:47:04;12.03;;;3.90;;
20181;SDS011;10250;50.756;6.172;2023-07-20T07:49:05;10.97;;;3.27;;
20181;SDS011;10250;50.756;6.172;2023-07-20T07:51:05;12.93;;;3.53;;
20181;SDS011;10250;50.756;6.172;2023-07-20T07:53:07;13.17;;;4.13;;
20181;SDS011;10250;50.756;6.172;2023-07-20T07:55:08;12.17;;;3.53;;
20181;SDS011;10250;50.756;6.172;2023-07-20T07:57:09;11.87;;;3.80;;
20181;SDS011;10250;50.756;6.172;2023-07-20T07:59:09;12.23;;;3.90;;
20181;SDS011;10250;50.756;6.172;2023-07-20T08:01:11;10.77;;;3.20;;
20181;SDS011;10250;50.756;6.172;2023-07-20T08:03:11;12.03;;;2.93;;
20181;SDS011;10250;50.756;6.172;2023-07-20T08:05:12;12.90;;;3.77;;
20181;SDS011;10250;50.756;6.172;2023-07-20T08:07:12;13.97;;;4.00;;
20181;SDS011;10250;50.756;6.172;2023-07-20T08:09:13;10.60;;;3.67;;
20181;SDS011;10250;50.756;6.172;2023-07-20T08:11:14;14.10;;;4.50;;
20181;SDS011;10250;50.756;6.172;2023-07-20T08:13:14;12.63;;;4.47;;
20181;SDS011;10250;50.756;6.172;2023-07-20T08:15:15;13.87;;;4.10;;
20181;SDS011;10250;50.756;6.172;2023-07-20T08:17:15;11.17;;;3.50;;
20181;SDS011;10250;50.756;6.172;2023-07-20T08:19:16;10.63;;;2.90;;
20181;SDS011;10250;50.756;6.172;2023-07-20T08:21:16;8.50;;;2.40;;
20181;SDS011;10250;50.756;6.172;2023-07-20T08:23:17;9.90;;;2.63;;
20181;SDS011;10250;50.756;6.172;2023-07-20T08:25:20;9.30;;;2.70;;
20181;SDS011;10250;50.756;6.172;2023-07-20T08:27:20;12.03;;;3.10;;
20181;SDS011;10250;50.756;6.172;2023-07-20T08:29:21;11.17;;;3.50;;
20181;SDS011;10250;50.756;6.172;2023-07-20T08:31:22;11.73;;;3.10;;
20181;SDS011;10250;50.756;6.172;2023-07-20T08:33:22;11.73;;;3.20;;
20181;SDS011;10250;50.756;6.172;2023-07-20T08:35:24;11.53;;;3.17;;
20181;SDS011;10250;50.756;6.172;2023-07-20T08:37:24;11.07;;;3.60;;
20181;SDS011;10250;50.756;6.172;2023-07-20T08:39:25;9.53;;;3.00;;
20181;SDS011;10250;50.756;6.172;2023-07-20T08:41:25;11.60;;;3.03;;
20181;SDS011;10250;50.756;6.172;2023-07-20T08:43:26;11.60;;;2.97;;
20181;SDS011;10250;50.756;6.172;2023-07-20T08:45:28;8.53;;;2.50;;
20181;SDS011;10250;50.756;6.172;2023-07-20T08:47:31;8.57;;;2.60;;
20181;SDS011;10250;50.756;6.172;2023-07-20T08:49:32;11.13;;;2.67;;
20181;SDS011;10250;50.756;6.172;2023-07-20T08:51:34;6.97;;;2.13;;
20181;SDS011;10250;50.756;6.172;2023-07-20T08:53:35;6.73;;;2.10;;
20181;SDS011;10250;50.756;6.172;2023-07-20T08:55:36;8.17;;;2.57;;
20181;SDS011;10250;50.756;6.172;2023-07-20T08:57:38;7.07;;;2.10;;
20181;SDS011;10250;50.756;6.172;2023-07-20T08:59:41;8.60;;;2.53;;
20181;SDS011;10250;50.756;6.172;2023-07-20T09:01:43;13.87;;;3.50;;
20181;SDS011;10250;50.756;6.172;2023-07-20T09:03:45;14.20;;;3.80;;
20181;SDS011;10250;50.756;6.172;2023-07-20T09:05:46;10.70;;;3.33;;
20181;SDS011;10250;50.756;6.172;2023-07-20T09:07:47;10.70;;;3.07;;
20181;SDS011;10250;50.756;6.172;2023-07-20T09:09:47;11.43;;;3.10;;
20181;SDS011;10250;50.756;6.172;2023-07-20T09:11:51;10.80;;;3.37;;
20181;SDS011;10250;50.756;6.172;2023-07-20T09:14:05;9.97;;;2.97;;
20181;SDS011;10250;50.756;6.172;2023-07-20T09:16:06;9.77;;;2.80;;
20181;SDS011;10250;50.756;6.172;2023-07-20T09:18:07;9.07;;;2.87;;
20181;SDS011;10250;50.756;6.172;2023-07-20T09:20:08;10.73;;;3.27;;
20181;SDS011;10250;50.756;6.172;2023-07-20T09:22:12;11.07;;;3.30;;
20181;SDS011;10250;50.756;6.172;2023-07-20T09:24:12;8.17;;;2.57;;
20181;SDS011;10250;50.756;6.172;2023-07-20T09:26:13;10.60;;;2.77;;
20181;SDS011;10250;50.756;6.172;2023-07-20T09:28:15;8.63;;;2.33;;
20181;SDS011;10250;50.756;6.172;2023-07-20T09:30:16;8.87;;;2.60;;
20181;SDS011;10250;50.756;6.172;2023-07-20T09:32:20;6.97;;;2.03;;
20181;SDS011;10250;50.756;6.172;2023-07-20T09:34:21;7.33;;;2.47;;
20181;SDS011;10250;50.756;6.172;2023-07-20T09:36:22;7.90;;;2.30;;
20181;SDS011;10250;50.756;6.172;2023-07-20T09:38:22;7.03;;;2.20;;
20181;SDS011;10250;50.756;6.172;2023-07-20T09:40:26;7.03;;;2.23;;
20181;SDS011;10250;50.756;6.172;2023-07-20T09:42:27;8.93;;;2.47;;
20181;SDS011;10250;50.756;6.172;2023-07-20T09:44:27;10.10;;;3.10;;
20181;SDS011;10250;50.756;6.172;2023-07-20T09:46:40;7.40;;;2.30;;
20181;SDS011;10250;50.756;6.172;2023-07-20T09:48:53;10.83;;;2.77;;
20181;SDS011;10250;50.756;6.172;2023-07-20T09:50:54;6.77;;;2.13;;
20181;SDS011;10250;50.756;6.172;2023-07-20T09:52:56;7.67;;;2.20;;
20181;SDS011;10250;50.756;6.172;2023-07-20T09:54:57;7.20;;;2.30;;
20181;SDS011;10250;50.756;6.172;2023-07-20T09:56:59;7.77;;;2.30;;
20181;SDS011;10250;50.756;6.172;2023-07-20T09:59:02;6.83;;;2.30;;
20181;SDS011;10250;50.756;6.172;2023-07-20T10:01:04;7.17;;;2.10;;
20181;SDS011;10250;50.756;6.172;2023-07-20T10:03:07;6.33;;;1.87;;
20181;SDS011;10250;50.756;6.172;2023-07-20T10:05:14;6.83;;;2.27;;
20181;SDS011;10250;50.756;6.172;2023-07-20T10:07:15;4.87;;;1.83;;
20181;SDS011;10250;50.756;6.172;2023-07-20T10:09:21;8.20;;;2.20;;
20181;SDS011;10250;50.756;6.172;2023-07-20T10:11:24;7.33;;;2.20;;
20181;SDS011;10250;50.756;6.172;2023-07-20T10:13:29;9.27;;;2.40;;
20181;SDS011;10250;50.756;6.172;2023-07-20T10:15:34;10.13;;;2.47;;
20181;SDS011;10250;50.756;6.172;2023-07-20T10:17:40;8.63;;;2.63;;
20181;SDS011;10250;50.756;6.172;2023-07-20T10:20:03;6.63;;;2.23;;
20181;SDS011;10250;50.756;6.172;2023-07-20T10:22:10;9.33;;;2.40;;
20181;SDS011;10250;50.756;6.172;2023-07-20T10:24:15;8.70;;;2.30;;
20181;SDS011;10250;50.756;6.172;2023-07-20T10:26:17;8.70;;;2.50;;
20181;SDS011;10250;50.756;6.172;2023-07-20T10:28:18;8.67;;;2.50;;
20181;SDS011;10250;50.756;6.172;2023-07-20T10:30:20;13.00;;;2.67;;
20181;SDS011;10250;50.756;6.172;2023-07-20T10:32:21;9.00;;;2.67;;
20181;SDS011;10250;50.756;6.172;2023-07-20T10:34:22;11.37;;;2.57;;
20181;SDS011;10250;50.756;6.172;2023-07-20T10:36:27;9.30;;;2.70;;
20181;SDS011;10250;50.756;6.172;2023-07-20T10:40:56;6.27;;;2.13;;
20181;SDS011;10250;50.756;6.172;2023-07-20T10:43:00;8.50;;;2.60;;
20181;SDS011;10250;50.756;6.172;2023-07-20T10:45:03;9.07;;;2.27;;
20181;SDS011;10250;50.756;6.172;2023-07-20T10:47:08;9.17;;;2.50;;
20181;SDS011;10250;50.756;6.172;2023-07-20T10:49:10;8.77;;;2.50;;
20181;SDS011;10250;50.756;6.172;2023-07-20T10:51:13;9.53;;;2.43;;
20181;SDS011;10250;50.756;6.172;2023-07-20T10:53:19;8.17;;;2.60;;
20181;SDS011;10250;50.756;6.172;2023-07-20T10:55:20;5.63;;;2.10;;
20181;SDS011;10250;50.756;6.172;2023-07-20T10:57:23;7.53;;;2.40;;
20181;SDS011;10250;50.756;6.172;2023-07-20T11:01:35;8.03;;;2.23;;
20181;SDS011;10250;50.756;6.172;2023-07-20T11:03:37;6.73;;;2.07;;
20181;SDS011;10250;50.756;6.172;2023-07-20T11:05:39;8.70;;;2.43;;
20181;SDS011;10250;50.756;6.172;2023-07-20T11:07:40;6.43;;;1.90;;
20181;SDS011;10250;50.756;6.172;2023-07-20T11:09:41;7.53;;;2.20;;
20181;SDS011;10250;50.756;6.172;2023-07-20T11:11:43;7.53;;;2.30;;
20181;SDS011;10250;50.756;6.172;2023-07-20T11:18:11;6.80;;;2.07;;
20181;SDS011;10250;50.756;6.172;2023-07-20T11:20:12;5.83;;;2.10;;
20181;SDS011;10250;50.756;6.172;2023-07-20T11:22:14;5.23;;;1.80;;
20181;SDS011;10250;50.756;6.172;2023-07-20T11:24:17;5.83;;;1.73;;
20181;SDS011;10250;50.756;6.172;2023-07-20T11:26:18;7.07;;;2.10;;
20181;SDS011;10250;50.756;6.172;2023-07-20T11:28:19;7.50;;;2.40;;
20181;SDS011;10250;50.756;6.172;2023-07-20T11:30:20;8.07;;;2.17;;
20181;SDS011;10250;50.756;6.172;2023-07-20T11:32:21;5.30;;;1.70;;
20181;SDS011;10250;50.756;6.172;2023-07-20T11:34:22;5.37;;;1.87;;
20181;SDS011;10250;50.756;6.172;2023-07-20T11:36:22;6.20;;;2.00;;
20181;SDS011;10250;50.756;6.172;2023-07-20T11:38:23;5.93;;;2.00;;
20181;SDS011;10250;50.756;6.172;2023-07-20T11:40:24;6.90;;;2.00;;
20181;SDS011;10250;50.756;6.172;2023-07-20T11:42:25;7.93;;;1.97;;
20181;SDS011;10250;50.756;6.172;2023-07-20T11:44:26;20.47;;;7.40;;
20181;SDS011;10250;50.756;6.172;2023-07-20T11:46:28;15.13;;;4.23;;
20181;SDS011;10250;50.756;6.172;2023-07-20T11:48:29;11.17;;;3.13;;
20181;SDS011;10250;50.756;6.172;2023-07-20T11:50:30;13.93;;;3.83;;
20181;SDS011;10250;50.756;6.172;2023-07-20T11:52:30;9.27;;;2.30;;
20181;SDS011;10250;50.756;6.172;2023-07-20T11:54:32;6.67;;;2.20;;
20181;SDS011;10250;50.756;6.172;2023-07-20T11:56:34;8.33;;;2.47;;
20181;SDS011;10250;50.756;6.172;2023-07-20T11:58:34;13.63;;;3.23;;
20181;SDS011;10250;50.756;6.172;2023-07-20T12:00:36;7.33;;;2.33;;
20181;SDS011;10250;50.756;6.172;2023-07-20T12:02:38;9.90;;;2.70;;
20181;SDS011;10250;50.756;6.172;2023-07-20T12:04:39;9.17;;;2.77;;
20181;SDS011;10250;50.756;6.172;2023-07-20T12:06:40;7.63;;;1.90;;
20181;SDS011;10250;50.756;6.172;2023-07-20T12:08:41;7.73;;;1.90;;
20181;SDS011;10250;50.756;6.172;2023-07-20T12:10:42;4.80;;;1.63;;
20181;SDS011;10250;50.756;6.172;2023-07-20T12:12:44;5.93;;;1.80;;
20181;SDS011;10250;50.756;6.172;2023-07-20T12:14:45;6.33;;;1.80;;
20181;SDS011;10250;50.756;6.172;2023-07-20T12:16:51;4.70;;;1.50;;
20181;SDS011;10250;50.756;6.172;2023-07-20T12:19:00;4.20;;;1.50;;
20181;SDS011;10250;50.756;6.172;2023-07-20T12:21:02;4.43;;;1.57;;
20181;SDS011;10250;50.756;6.172;2023-07-20T12:23:05;3.97;;;1.67;;
20181;SDS011;10250;50.756;6.172;2023-07-20T12:25:09;4.83;;;1.53;;
20181;SDS011;10250;50.756;6.172;2023-07-20T12:27:12;6.37;;;1.60;;